Time;durP1;ratioP1;P1;durP2;ratioP2;P2;SDS_P1;SDS_P2;PMS_P1;PMS_P2;Temp;Humidity;BMP_temperature;BMP_pressure;BME280_temperature;BME280_humidity;BME280_pressure;Samples;Min_cycle;Max_cycle;Signal;HPM_P1;HPM_P2
2021/04/28 00:46:45;;;;;;;15.80;10.87;;;;;;;1.77;80.16;100478.63;20865861;28;20824;-61
2021/04/28 01:16:40;;;;;;;12.07;7.63;;;;;;;1.41;82.53;100462.00;20879650;27;20571;-68
2021/04/28 01:26:43;;;;;;;12.60;7.73;;;;;;;1.39;81.45;100457.69;20874028;28;20224;-69
2021/04/28 01:46:42;;;;;;;9.83;7.17;;;;;;;1.60;79.74;100458.91;20944308;27;20589;-68
2021/04/28 01:56:46;;;;;;;14.37;8.60;;;;;;;1.67;79.86;100452.59;20935586;28;20964;-70
2021/04/28 02:26:42;;;;;;;10.03;7.30;;;;;;;0.85;85.19;100426.53;20872332;27;21132;-65
2021/04/28 03:26:34;;;;;;;15.20;8.60;;;;;;;0.30;91.76;100427.75;20900571;27;20680;-60
2021/04/28 03:36:34;;;;;;;12.87;8.70;;;;;;;0.44;91.26;100426.59;20861356;28;20299;-63
2021/04/28 03:46:35;;;;;;;19.42;12.32;;;;;;;0.78;89.85;100434.59;20859348;28;20215;-61
2021/04/28 03:56:35;;;;;;;20.40;11.90;;;;;;;1.69;86.14;100442.91;20840182;28;20274;-63
2021/04/28 04:16:34;;;;;;;16.13;12.10;;;;;;;3.83;78.21;100449.53;20881155;27;20642;-66
2021/04/28 04:26:35;;;;;;;15.17;11.70;;;;;;;4.50;75.77;100452.38;20874356;28;20221;-64
2021/04/28 04:36:35;;;;;;;19.50;12.23;;;;;;;5.23;72.57;100467.16;20861145;28;20475;-67
2021/04/28 04:46:35;;;;;;;13.80;10.33;;;;;;;5.65;69.94;100473.38;20771957;28;20250;-72
2021/04/28 05:16:34;;;;;;;14.90;9.80;;;;;;;5.90;65.87;100462.63;20863794;27;20689;-70
2021/04/28 05:36:37;;;;;;;15.57;9.97;;;;;;;6.37;65.03;100465.00;20921756;27;899468;-68
2021/04/28 05:46:38;;;;;;;12.02;8.98;;;;;;;6.66;64.54;100463.66;20956622;28;20331;-64
2021/04/28 06:06:37;;;;;;;13.37;8.87;;;;;;;7.38;63.15;100456.66;21051110;27;20581;-65
2021/04/28 06:16:37;;;;;;;12.53;8.13;;;;;;;7.89;63.14;100465.63;21071218;27;20283;-67
2021/04/28 06:26:41;;;;;;;12.27;8.93;;;;;;;8.33;61.06;100463.38;21051941;27;20940;-69
2021/04/28 06:36:41;;;;;;;10.13;8.00;;;;;;;8.70;57.50;100464.91;21068516;27;20301;-66
2021/04/28 06:46:42;;;;;;;17.20;9.13;;;;;;;9.08;57.04;100437.97;21054317;27;21086;-70
2021/04/28 06:56:43;;;;;;;10.17;8.47;;;;;;;9.40;55.55;100439.69;21073222;27;20480;-66
2021/04/28 07:06:44;;;;;;;12.20;9.20;;;;;;;9.68;54.61;100444.25;21058606;27;20259;-65
2021/04/28 07:16:45;;;;;;;10.02;7.65;;;;;;;10.01;54.94;100446.75;21001570;27;20705;-66
2021/04/28 07:26:46;;;;;;;8.83;7.47;;;;;;;10.26;51.98;100447.03;21006226;28;20333;-65
2021/04/28 07:36:47;;;;;;;11.00;7.17;;;;;;;10.55;51.15;100436.34;20987227;28;20315;-66
2021/04/28 07:46:48;;;;;;;8.73;7.27;;;;;;;10.82;49.59;100423.94;21007348;27;20261;-68
2021/04/28 07:56:49;;;;;;;9.27;7.47;;;;;;;10.99;45.99;100431.72;20958145;27;20316;-67
2021/04/28 08:06:49;;;;;;;11.40;7.53;;;;;;;11.11;45.09;100411.38;20967229;28;20444;-67
2021/04/28 08:16:49;;;;;;;7.13;6.40;;;;;;;11.35;46.87;100414.28;20955504;28;20214;-67
2021/04/28 08:26:50;;;;;;;5.80;5.20;;;;;;;11.64;48.74;100418.53;20984052;28;20248;-68
2021/04/28 08:36:51;;;;;;;6.83;6.00;;;;;;;11.74;47.43;100406.25;20996232;28;20386;-67
2021/04/28 08:46:51;;;;;;;6.17;5.17;;;;;;;11.96;45.14;100397.66;20989529;28;20267;-68
2021/04/28 08:56:54;;;;;;;6.17;5.03;;;;;;;12.05;46.69;100388.16;21001190;28;21051;-66
2021/04/28 09:06:55;;;;;;;22.53;6.97;;;;;;;12.12;43.94;100390.28;20968062;28;20229;-67
2021/04/28 09:17:02;;;;;;;7.17;5.70;;;;;;;12.15;45.07;100383.88;20976806;28;20703;-65
2021/04/28 09:27:07;;;;;;;5.57;4.70;;;;;;;12.40;45.99;100367.81;20981276;28;20224;-66
2021/04/28 09:37:16;;;;;;;9.37;5.83;;;;;;;12.47;41.25;100361.06;20969506;28;20226;-65
2021/04/28 09:47:25;;;;;;;6.63;5.40;;;;;;;12.65;44.05;100352.69;20983987;28;20979;-66
2021/04/28 09:57:46;;;;;;;5.67;5.17;;;;;;;12.71;41.72;100325.44;21005786;28;20233;-68
2021/04/28 10:07:48;;;;;;;8.23;5.53;;;;;;;12.77;42.24;100325.00;20993496;28;20229;-66
2021/04/28 10:17:49;;;;;;;6.07;4.60;;;;;;;12.91;45.54;100311.47;20987605;28;20331;-67
2021/04/28 10:27:49;;;;;;;6.50;5.07;;;;;;;12.72;41.49;100273.59;20982098;28;20230;-67
2021/04/28 10:37:51;;;;;;;5.53;4.40;;;;;;;12.99;45.71;100301.03;20927881;28;20230;-68
2021/04/28 10:47:55;;;;;;;5.23;4.73;;;;;;;13.15;45.31;100296.28;20993218;28;20763;-67
2021/04/28 10:57:56;;;;;;;5.03;4.53;;;;;;;13.36;44.61;100300.97;20981602;28;20237;-67
2021/04/28 11:07:58;;;;;;;5.23;4.47;;;;;;;13.58;43.38;100290.31;20995944;28;20231;-69
2021/04/28 11:18:26;;;;;;;5.13;4.63;;;;;;;13.56;39.34;100276.16;20981963;28;20280;-69
2021/04/28 11:28:35;;;;;;;5.97;5.00;;;;;;;13.65;41.03;100262.03;20990469;28;20228;-68
2021/04/28 11:38:40;;;;;;;7.73;5.50;;;;;;;13.79;41.62;100250.22;20981493;28;20248;-69
2021/04/28 11:48:42;;;;;;;5.77;5.17;;;;;;;13.83;42.94;100231.09;20965409;28;20279;-69
2021/04/28 11:58:43;;;;;;;8.40;6.67;;;;;;;13.73;41.90;100214.03;20932778;27;20253;-69
2021/04/28 12:08:43;;;;;;;7.87;5.70;;;;;;;13.96;41.85;100210.38;20957092;27;20272;-69
2021/04/28 12:18:45;;;;;;;8.30;5.60;;;;;;;14.18;43.45;100204.13;20990518;28;20255;-69
2021/04/28 12:28:49;;;;;;;6.77;4.93;;;;;;;14.23;41.28;100184.97;20971765;28;20271;-70
2021/04/28 12:38:51;;;;;;;4.70;4.30;;;;;;;14.29;43.18;100153.09;21023789;28;20276;-69
2021/04/28 12:49:02;;;;;;;5.97;5.07;;;;;;;14.44;39.36;100145.66;21035048;28;20242;-68
2021/04/28 12:59:14;;;;;;;9.93;5.27;;;;;;;14.43;36.65;100153.84;21052827;28;20254;-69
2021/04/28 13:09:15;;;;;;;6.13;4.43;;;;;;;14.48;40.06;100125.63;21036256;28;20232;-69
2021/04/28 13:19:21;;;;;;;4.73;4.30;;;;;;;14.66;37.55;100132.13;20967431;28;20228;-70
2021/04/28 13:29:22;;;;;;;4.33;3.93;;;;;;;14.59;41.22;100101.41;20940984;28;20255;-69
2021/04/28 13:39:27;;;;;;;5.33;4.43;;;;;;;14.73;38.69;100111.00;20945414;28;20691;-69
2021/04/28 13:49:27;;;;;;;5.83;4.67;;;;;;;14.77;37.87;100089.09;20944694;28;20976;-70
2021/04/28 13:59:28;;;;;;;6.43;4.20;;;;;;;14.78;39.42;100088.13;20924403;28;20313;-61
2021/04/28 14:09:28;;;;;;;5.10;3.47;;;;;;;14.78;40.49;100084.59;20945953;28;20221;-69
2021/04/28 14:19:30;;;;;;;4.40;4.00;;;;;;;14.78;40.03;100069.31;20932055;28;20413;-70
2021/04/28 14:29:30;;;;;;;4.10;3.73;;;;;;;14.72;37.06;100058.25;20882573;28;20225;-68
2021/04/28 14:39:31;;;;;;;6.20;4.70;;;;;;;14.68;34.93;100046.91;20856057;28;20388;-69
2021/04/28 14:49:31;;;;;;;3.77;3.43;;;;;;;14.77;37.44;100056.00;20911509;28;20280;-69
2021/04/28 14:59:32;;;;;;;4.17;3.80;;;;;;;14.71;39.01;100046.66;20968417;28;20241;-67
2021/04/28 15:09:32;;;;;;;3.30;3.00;;;;;;;14.80;40.72;100041.47;20956250;28;20233;-66
2021/04/28 15:19:34;;;;;;;3.60;3.30;;;;;;;14.96;36.90;100031.97;20971031;28;20945;-69
2021/04/28 15:29:35;;;;;;;3.67;3.10;;;;;;;14.98;39.78;100032.66;20946172;28;20350;-64
2021/04/28 15:39:36;;;;;;;4.70;3.60;;;;;;;15.02;38.46;100023.34;20945205;28;20325;-66
2021/04/28 15:49:36;;;;;;;5.07;4.20;;;;;;;14.88;36.88;100020.16;20947550;28;20213;-67
2021/04/28 15:59:37;;;;;;;4.17;3.50;;;;;;;14.70;37.91;100010.03;20970646;28;20280;-64
2021/04/28 16:09:37;;;;;;;4.13;3.50;;;;;;;14.65;39.86;100008.72;20971439;28;20538;-65
2021/04/28 16:19:38;;;;;;;4.07;3.67;;;;;;;14.52;39.80;100006.22;20970922;28;20313;-65
2021/04/28 16:29:38;;;;;;;3.80;3.50;;;;;;;14.37;40.18;99999.44;20962050;28;20300;-66
2021/04/28 16:39:39;;;;;;;5.13;3.87;;;;;;;14.25;40.87;100000.53;20962349;28;20232;-69
2021/04/28 16:49:39;;;;;;;4.50;4.10;;;;;;;13.98;39.26;99988.44;20966156;28;20306;-65
2021/04/28 16:59:39;;;;;;;4.87;3.63;;;;;;;13.74;40.99;99985.13;20953167;28;20233;-68
2021/04/28 17:09:40;;;;;;;10.60;4.23;;;;;;;13.60;41.34;99988.06;20934589;28;20220;-67
2021/04/28 17:19:42;;;;;;;11.77;4.53;;;;;;;13.77;41.55;99984.84;20861154;28;20224;-66
2021/04/28 17:29:43;;;;;;;5.03;4.10;;;;;;;13.59;41.19;99986.38;20888228;28;20212;-66
2021/04/28 17:39:43;;;;;;;7.13;4.80;;;;;;;12.98;42.94;99976.06;20856411;28;20238;-67
2021/04/28 17:49:44;;;;;;;8.00;5.37;;;;;;;12.09;44.43;99964.38;20864808;28;20313;-65
2021/04/28 17:59:46;;;;;;;10.63;6.47;;;;;;;11.43;44.86;99960.41;20872627;28;20231;-67
2021/04/28 18:09:46;;;;;;;8.93;6.37;;;;;;;10.94;44.56;99971.13;20853370;28;20275;-65
2021/04/28 18:19:47;;;;;;;5.20;4.50;;;;;;;10.61;46.18;99987.69;20849368;28;20225;-62
2021/04/28 18:29:48;;;;;;;7.83;6.10;;;;;;;10.27;46.52;99989.16;20834384;28;20222;-66
2021/04/28 18:39:48;;;;;;;9.50;7.10;;;;;;;9.98;47.05;99999.09;20871604;28;20924;-62
2021/04/28 18:49:48;;;;;;;12.83;8.40;;;;;;;9.77;47.19;99984.53;20863929;28;20222;-65
2021/04/28 18:59:49;;;;;;;12.10;7.87;;;;;;;9.74;47.27;99978.44;20872905;28;20236;-62
2021/04/28 19:09:50;;;;;;;9.17;6.77;;;;;;;9.57;48.94;99988.50;20844949;28;20238;-61
2021/04/28 19:19:50;;;;;;;15.80;9.17;;;;;;;9.28;49.70;99985.94;20888359;28;20572;-62
2021/04/28 19:29:51;;;;;;;16.83;10.80;;;;;;;9.02;50.52;99981.41;20880461;28;20232;-61
2021/04/28 19:39:51;;;;;;;21.97;10.07;;;;;;;8.87;50.22;99983.22;20884563;28;20479;-65
2021/04/28 19:49:52;;;;;;;12.77;8.37;;;;;;;8.86;52.07;99981.50;20938161;28;20258;-65
2021/04/28 19:59:52;;;;;;;13.80;7.10;;;;;;;8.82;52.17;99974.66;20973903;27;20315;-60
2021/04/28 20:09:53;;;;;;;11.57;6.57;;;;;;;8.63;52.95;99947.50;21043316;28;20224;-62
2021/04/28 20:19:55;;;;;;;10.10;6.97;;;;;;;8.59;54.28;99961.94;21015279;27;20321;-61
2021/04/28 20:29:55;;;;;;;11.23;7.30;;;;;;;8.48;54.41;99959.09;21054290;28;20291;-61
2021/04/28 20:39:56;;;;;;;16.93;7.60;;;;;;;8.41;54.43;99952.44;21035631;28;20220;-68
2021/04/28 20:49:56;;;;;;;10.63;6.97;;;;;;;8.36;54.87;99944.75;21054451;28;20583;-62
2021/04/28 20:59:58;;;;;;;14.73;7.90;;;;;;;8.22;55.31;99931.41;21040627;28;20706;-69
2021/04/28 21:10:05;;;;;;;11.47;9.37;;;;;;;8.18;55.05;99936.06;21070052;27;20747;-66
2021/04/28 21:20:09;;;;;;;13.93;8.37;;;;;;;8.03;55.37;99936.97;21045454;28;20310;-69
2021/04/28 21:30:10;;;;;;;9.80;7.23;;;;;;;7.85;55.78;99922.97;21038961;28;20298;-67
2021/04/28 21:40:12;;;;;;;10.87;6.73;;;;;;;7.72;55.93;99929.13;21052111;28;20576;-66
2021/04/28 21:50:13;;;;;;;10.03;7.43;;;;;;;7.61;56.64;99923.59;21030648;28;20222;-66
2021/04/28 22:00:14;;;;;;;9.67;7.83;;;;;;;7.53;57.08;99916.91;21050507;28;20757;-65
2021/04/28 22:10:14;;;;;;;12.47;7.80;;;;;;;7.56;57.34;99900.81;21030538;28;20225;-66
2021/04/28 22:20:15;;;;;;;15.43;8.47;;;;;;;7.68;56.87;99882.44;21050452;28;20305;-62
2021/04/28 22:30:16;;;;;;;12.50;8.83;;;;;;;7.93;56.78;99882.69;21034442;28;20309;-64
2021/04/28 22:40:16;;;;;;;11.80;8.23;;;;;;;8.02;57.10;99870.63;21043552;28;20870;-66
2021/04/28 22:50:18;;;;;;;12.63;8.97;;;;;;;8.01;57.09;99864.47;21067236;27;20216;-64
2021/04/28 23:00:23;;;;;;;12.53;8.47;;;;;;;8.03;57.46;99862.56;21056157;28;20226;-67
2021/04/28 23:10:24;;;;;;;9.60;7.80;;;;;;;8.03;57.97;99857.25;21063831;28;20241;-67
2021/04/28 23:20:25;;;;;;;9.33;7.60;;;;;;;7.93;57.87;99840.19;21041032;28;20294;-67
2021/04/28 23:30:25;;;;;;;8.40;6.97;;;;;;;7.84;58.46;99846.06;21060831;28;20216;-68
2021/04/28 23:40:26;;;;;;;11.15;7.85;;;;;;;7.82;58.71;99838.19;21038707;28;20298;-64
2021/04/28 23:50:27;;;;;;;10.60;7.90;;;;;;;7.68;58.91;99829.34;21059011;28;20298;-64
